sensor_id;sensor_type;location;lat;lon;timestamp;pressure;altitude;pressure_sealevel;temperature;humidity
11878;BME280;5998;42.676;23.268;2023-02-28T00:00:09;95278.91;;;8.26;100.00
11878;BME280;5998;42.676;23.268;2023-02-28T00:02:37;95284.53;;;8.16;100.00
11878;BME280;5998;42.676;23.268;2023-02-28T00:05:05;95282.50;;;8.13;100.00
11878;BME280;5998;42.676;23.268;2023-02-28T00:07:32;95287.22;;;8.16;100.00
11878;BME280;5998;42.676;23.268;2023-02-28T00:09:59;95291.31;;;8.13;100.00
11878;BME280;5998;42.676;23.268;2023-02-28T00:12:26;95285.63;;;8.06;100.00
11878;BME280;5998;42.676;23.268;2023-02-28T00:14:53;95286.13;;;8.17;100.00
11878;BME280;5998;42.676;23.268;2023-02-28T00:17:21;95291.19;;;8.18;100.00
11878;BME280;5998;42.676;23.268;2023-02-28T00:19:49;95287.41;;;8.19;100.00
11878;BME280;5998;42.676;23.268;2023-02-28T00:22:17;95297.81;;;8.21;100.00
11878;BME280;5998;42.676;23.268;2023-02-28T00:24:44;95313.84;;;7.95;100.00
11878;BME280;5998;42.676;23.268;2023-02-28T00:27:11;95314.38;;;7.75;100.00
11878;BME280;5998;42.676;23.268;2023-02-28T00:29:38;95319.25;;;7.73;100.00
11878;BME280;5998;42.676;23.268;2023-02-28T00:32:05;95315.03;;;7.81;100.00
11878;BME280;5998;42.676;23.268;2023-02-28T00:34:33;95318.03;;;7.79;100.00
11878;BME280;5998;42.676;23.268;2023-02-28T00:37:03;95321.63;;;7.66;100.00
11878;BME280;5998;42.676;23.268;2023-02-28T00:39:30;95319.69;;;7.66;100.00
11878;BME280;5998;42.676;23.268;2023-02-28T00:41:57;95314.84;;;7.68;100.00
11878;BME280;5998;42.676;23.268;2023-02-28T00:44:23;95314.69;;;7.73;100.00
11878;BME280;5998;42.676;23.268;2023-02-28T00:46:50;95311.06;;;7.39;100.00
11878;BME280;5998;42.676;23.268;2023-02-28T00:49:19;95322.25;;;7.41;100.00
11878;BME280;5998;42.676;23.268;2023-02-28T00:51:47;95317.69;;;7.41;100.00
11878;BME280;5998;42.676;23.268;2023-02-28T00:54:14;95312.78;;;7.35;100.00
11878;BME280;5998;42.676;23.268;2023-02-28T00:56:41;95315.03;;;7.41;100.00
11878;BME280;5998;42.676;23.268;2023-02-28T00:59:08;95316.84;;;7.32;100.00
11878;BME280;5998;42.676;23.268;2023-02-28T01:01:34;95318.94;;;7.13;100.00
11878;BME280;5998;42.676;23.268;2023-02-28T01:04:01;95316.06;;;7.09;100.00
11878;BME280;5998;42.676;23.268;2023-02-28T01:06:28;95320.59;;;6.78;100.00
11878;BME280;5998;42.676;23.268;2023-02-28T01:08:56;95311.63;;;6.83;100.00
11878;BME280;5998;42.676;23.268;2023-02-28T01:11:23;95322.81;;;6.49;100.00
11878;BME280;5998;42.676;23.268;2023-02-28T01:13:49;95316.88;;;6.52;100.00
11878;BME280;5998;42.676;23.268;2023-02-28T01:16:17;95319.19;;;6.45;100.00
11878;BME280;5998;42.676;23.268;2023-02-28T01:18:43;95327.00;;;6.41;100.00
11878;BME280;5998;42.676;23.268;2023-02-28T01:21:13;95326.34;;;6.36;100.00
11878;BME280;5998;42.676;23.268;2023-02-28T01:23:40;95323.69;;;6.22;100.00
11878;BME280;5998;42.676;23.268;2023-02-28T01:26:10;95330.78;;;6.40;100.00
11878;BME280;5998;42.676;23.268;2023-02-28T01:28:37;95334.56;;;6.39;100.00
11878;BME280;5998;42.676;23.268;2023-02-28T01:31:04;95329.25;;;6.12;100.00
11878;BME280;5998;42.676;23.268;2023-02-28T01:33:31;95327.53;;;6.16;100.00
11878;BME280;5998;42.676;23.268;2023-02-28T01:35:58;95324.88;;;6.03;100.00
11878;BME280;5998;42.676;23.268;2023-02-28T01:38:24;95325.19;;;6.01;100.00
11878;BME280;5998;42.676;23.268;2023-02-28T01:40:51;95339.44;;;5.97;100.00
11878;BME280;5998;42.676;23.268;2023-02-28T01:43:24;95334.28;;;6.00;100.00
11878;BME280;5998;42.676;23.268;2023-02-28T01:45:51;95338.56;;;6.01;100.00
11878;BME280;5998;42.676;23.268;2023-02-28T01:48:19;95344.78;;;6.10;100.00
11878;BME280;5998;42.676;23.268;2023-02-28T01:50:47;95348.66;;;6.18;100.00
11878;BME280;5998;42.676;23.268;2023-02-28T01:53:16;95344.28;;;6.08;100.00
11878;BME280;5998;42.676;23.268;2023-02-28T01:55:46;95344.88;;;6.05;100.00
11878;BME280;5998;42.676;23.268;2023-02-28T01:58:15;95331.50;;;6.19;100.00
11878;BME280;5998;42.676;23.268;2023-02-28T02:00:43;95330.00;;;6.13;100.00
11878;BME280;5998;42.676;23.268;2023-02-28T02:03:13;95338.34;;;6.25;100.00
11878;BME280;5998;42.676;23.268;2023-02-28T02:05:41;95333.28;;;6.23;100.00
11878;BME280;5998;42.676;23.268;2023-02-28T02:08:15;95330.63;;;6.23;100.00
11878;BME280;5998;42.676;23.268;2023-02-28T02:10:44;95323.19;;;6.34;100.00
11878;BME280;5998;42.676;23.268;2023-02-28T02:13:50;95330.00;;;6.40;100.00
11878;BME280;5998;42.676;23.268;2023-02-28T02:16:34;95329.78;;;6.50;100.00
11878;BME280;5998;42.676;23.268;2023-02-28T02:25:26;95315.59;;;6.49;100.00
11878;BME280;5998;42.676;23.268;2023-02-28T02:28:06;95322.44;;;6.56;100.00
11878;BME280;5998;42.676;23.268;2023-02-28T02:30:58;95319.16;;;6.59;100.00
11878;BME280;5998;42.676;23.268;2023-02-28T02:36:33;95329.53;;;6.60;100.00
11878;BME280;5998;42.676;23.268;2023-02-28T02:39:04;95318.03;;;6.60;100.00
11878;BME280;5998;42.676;23.268;2023-02-28T02:41:37;95328.34;;;6.66;100.00
11878;BME280;5998;42.676;23.268;2023-02-28T02:44:11;95330.53;;;6.64;100.00
11878;BME280;5998;42.676;23.268;2023-02-28T02:46:42;95328.19;;;6.49;100.00
11878;BME280;5998;42.676;23.268;2023-02-28T02:49:15;95336.09;;;6.54;100.00
11878;BME280;5998;42.676;23.268;2023-02-28T02:51:46;95329.84;;;6.59;100.00
11878;BME280;5998;42.676;23.268;2023-02-28T02:54:17;95339.31;;;6.42;100.00
11878;BME280;5998;42.676;23.268;2023-02-28T02:56:47;95334.25;;;6.41;100.00
11878;BME280;5998;42.676;23.268;2023-02-28T02:59:18;95325.63;;;6.44;100.00
11878;BME280;5998;42.676;23.268;2023-02-28T03:01:49;95343.25;;;6.45;100.00
11878;BME280;5998;42.676;23.268;2023-02-28T03:04:19;95328.41;;;6.39;100.00
11878;BME280;5998;42.676;23.268;2023-02-28T03:06:47;95343.16;;;6.50;100.00
11878;BME280;5998;42.676;23.268;2023-02-28T03:09:14;95351.47;;;6.48;100.00
11878;BME280;5998;42.676;23.268;2023-02-28T03:11:41;95346.53;;;6.42;100.00
11878;BME280;5998;42.676;23.268;2023-02-28T03:20:07;95370.34;;;6.66;100.00
11878;BME280;5998;42.676;23.268;2023-02-28T03:22:45;95367.78;;;6.61;100.00
11878;BME280;5998;42.676;23.268;2023-02-28T03:25:20;95369.19;;;6.58;100.00
11878;BME280;5998;42.676;23.268;2023-02-28T03:27:54;95376.09;;;6.73;100.00
11878;BME280;5998;42.676;23.268;2023-02-28T03:30:25;95367.03;;;6.82;100.00
11878;BME280;5998;42.676;23.268;2023-02-28T03:32:58;95368.53;;;6.88;100.00
11878;BME280;5998;42.676;23.268;2023-02-28T03:35:29;95371.88;;;6.94;100.00
11878;BME280;5998;42.676;23.268;2023-02-28T03:38:04;95370.88;;;6.90;100.00
11878;BME280;5998;42.676;23.268;2023-02-28T03:40:33;95372.00;;;6.89;100.00
11878;BME280;5998;42.676;23.268;2023-02-28T03:43:09;95381.19;;;6.96;100.00
11878;BME280;5998;42.676;23.268;2023-02-28T03:45:39;95370.22;;;7.06;100.00
11878;BME280;5998;42.676;23.268;2023-02-28T03:48:13;95379.66;;;7.04;100.00
11878;BME280;5998;42.676;23.268;2023-02-28T03:50:42;95374.16;;;6.87;100.00
11878;BME280;5998;42.676;23.268;2023-02-28T03:53:14;95381.19;;;6.96;100.00
11878;BME280;5998;42.676;23.268;2023-02-28T03:55:46;95390.00;;;6.97;100.00
11878;BME280;5998;42.676;23.268;2023-02-28T03:58:20;95390.66;;;6.80;100.00
11878;BME280;5998;42.676;23.268;2023-02-28T04:00:54;95381.81;;;6.80;100.00
11878;BME280;5998;42.676;23.268;2023-02-28T04:03:22;95387.56;;;6.73;100.00
11878;BME280;5998;42.676;23.268;2023-02-28T04:05:50;95362.66;;;6.64;100.00
11878;BME280;5998;42.676;23.268;2023-02-28T04:08:20;95381.97;;;6.61;100.00
11878;BME280;5998;42.676;23.268;2023-02-28T04:10:53;95382.84;;;6.70;100.00
11878;BME280;5998;42.676;23.268;2023-02-28T04:13:22;95368.59;;;6.61;100.00
11878;BME280;5998;42.676;23.268;2023-02-28T04:15:48;95381.38;;;6.64;100.00
11878;BME280;5998;42.676;23.268;2023-02-28T04:18:15;95383.38;;;6.59;100.00
11878;BME280;5998;42.676;23.268;2023-02-28T04:20:42;95383.38;;;6.45;100.00
11878;BME280;5998;42.676;23.268;2023-02-28T04:23:08;95388.41;;;6.60;100.00
11878;BME280;5998;42.676;23.268;2023-02-28T04:25:36;95387.09;;;6.71;100.00
11878;BME280;5998;42.676;23.268;2023-02-28T04:28:05;95380.09;;;6.62;100.00
11878;BME280;5998;42.676;23.268;2023-02-28T04:30:32;95384.94;;;6.60;100.00
11878;BME280;5998;42.676;23.268;2023-02-28T04:32:59;95390.41;;;6.54;100.00
11878;BME280;5998;42.676;23.268;2023-02-28T04:35:26;95394.00;;;6.36;100.00
11878;BME280;5998;42.676;23.268;2023-02-28T04:37:53;95393.59;;;6.29;100.00
11878;BME280;5998;42.676;23.268;2023-02-28T04:40:19;95403.50;;;6.15;100.00
11878;BME280;5998;42.676;23.268;2023-02-28T04:42:47;95398.16;;;6.15;100.00
11878;BME280;5998;42.676;23.268;2023-02-28T04:45:14;95410.84;;;6.23;100.00
11878;BME280;5998;42.676;23.268;2023-02-28T04:47:42;95414.09;;;6.34;100.00
11878;BME280;5998;42.676;23.268;2023-02-28T04:50:09;95419.34;;;6.25;100.00
11878;BME280;5998;42.676;23.268;2023-02-28T04:52:36;95412.03;;;6.17;100.00
11878;BME280;5998;42.676;23.268;2023-02-28T04:55:04;95424.38;;;6.00;100.00
11878;BME280;5998;42.676;23.268;2023-02-28T04:57:30;95416.78;;;5.74;100.00
11878;BME280;5998;42.676;23.268;2023-02-28T04:59:58;95432.22;;;5.77;100.00
11878;BME280;5998;42.676;23.268;2023-02-28T05:02:25;95428.22;;;5.93;100.00
11878;BME280;5998;42.676;23.268;2023-02-28T05:04:52;95424.59;;;6.03;100.00
11878;BME280;5998;42.676;23.268;2023-02-28T05:07:18;95425.47;;;5.99;100.00
11878;BME280;5998;42.676;23.268;2023-02-28T05:09:45;95421.00;;;5.94;100.00
11878;BME280;5998;42.676;23.268;2023-02-28T05:12:12;95423.56;;;5.99;100.00
11878;BME280;5998;42.676;23.268;2023-02-28T05:14:39;95422.78;;;5.85;100.00
11878;BME280;5998;42.676;23.268;2023-02-28T05:17:08;95432.50;;;6.08;100.00
11878;BME280;5998;42.676;23.268;2023-02-28T05:19:35;95431.44;;;6.09;100.00
11878;BME280;5998;42.676;23.268;2023-02-28T05:22:02;95428.25;;;6.07;100.00
11878;BME280;5998;42.676;23.268;2023-02-28T05:24:28;95432.63;;;6.17;100.00
11878;BME280;5998;42.676;23.268;2023-02-28T05:26:55;95427.38;;;6.12;100.00
11878;BME280;5998;42.676;23.268;2023-02-28T05:29:22;95447.06;;;6.29;100.00
11878;BME280;5998;42.676;23.268;2023-02-28T05:31:49;95440.06;;;6.33;100.00
11878;BME280;5998;42.676;23.268;2023-02-28T05:34:17;95460.06;;;6.49;100.00
11878;BME280;5998;42.676;23.268;2023-02-28T05:36:44;95447.38;;;6.55;100.00
11878;BME280;5998;42.676;23.268;2023-02-28T05:39:10;95456.09;;;6.47;100.00
11878;BME280;5998;42.676;23.268;2023-02-28T05:41:39;95455.72;;;6.40;100.00
11878;BME280;5998;42.676;23.268;2023-02-28T05:44:06;95455.50;;;6.50;100.00
11878;BME280;5998;42.676;23.268;2023-02-28T05:46:33;95458.88;;;6.56;100.00
11878;BME280;5998;42.676;23.268;2023-02-28T05:49:00;95454.41;;;6.51;100.00
11878;BME280;5998;42.676;23.268;2023-02-28T05:51:28;95453.22;;;6.43;100.00
11878;BME280;5998;42.676;23.268;2023-02-28T05:53:58;95462.94;;;6.53;100.00
11878;BME280;5998;42.676;23.268;2023-02-28T05:56:25;95465.81;;;6.70;100.00
11878;BME280;5998;42.676;23.268;2023-02-28T05:58:52;95471.16;;;6.84;100.00
11878;BME280;5998;42.676;23.268;2023-02-28T06:01:21;95462.22;;;6.88;100.00
11878;BME280;5998;42.676;23.268;2023-02-28T06:03:49;95466.47;;;6.89;100.00
11878;BME280;5998;42.676;23.268;2023-02-28T06:06:15;95469.84;;;6.81;100.00
11878;BME280;5998;42.676;23.268;2023-02-28T06:08:43;95464.91;;;6.75;100.00
11878;BME280;5998;42.676;23.268;2023-02-28T06:11:11;95461.91;;;6.76;100.00
11878;BME280;5998;42.676;23.268;2023-02-28T06:13:38;95459.06;;;6.73;100.00
11878;BME280;5998;42.676;23.268;2023-02-28T06:16:05;95460.28;;;6.53;100.00
11878;BME280;5998;42.676;23.268;2023-02-28T06:18:32;95462.34;;;6.70;100.00
11878;BME280;5998;42.676;23.268;2023-02-28T06:20:59;95469.44;;;6.88;100.00
11878;BME280;5998;42.676;23.268;2023-02-28T06:23:26;95463.50;;;6.91;100.00
11878;BME280;5998;42.676;23.268;2023-02-28T06:25:54;95453.19;;;6.84;100.00
11878;BME280;5998;42.676;23.268;2023-02-28T06:28:23;95438.44;;;6.73;100.00
11878;BME280;5998;42.676;23.268;2023-02-28T06:30:50;95459.13;;;6.81;100.00
11878;BME280;5998;42.676;23.268;2023-02-28T06:33:17;95469.94;;;6.90;100.00
11878;BME280;5998;42.676;23.268;2023-02-28T06:35:44;95471.94;;;6.71;100.00
11878;BME280;5998;42.676;23.268;2023-02-28T06:38:11;95477.97;;;6.90;100.00
11878;BME280;5998;42.676;23.268;2023-02-28T06:40:37;95484.72;;;6.87;100.00
11878;BME280;5998;42.676;23.268;2023-02-28T06:43:05;95478.19;;;6.80;100.00
11878;BME280;5998;42.676;23.268;2023-02-28T06:45:32;95479.25;;;6.79;100.00
11878;BME280;5998;42.676;23.268;2023-02-28T06:47:59;95475.00;;;6.78;100.00
11878;BME280;5998;42.676;23.268;2023-02-28T06:50:26;95466.19;;;6.77;100.00
11878;BME280;5998;42.676;23.268;2023-02-28T06:52:54;95487.69;;;6.86;100.00
11878;BME280;5998;42.676;23.268;2023-02-28T06:55:21;95489.47;;;6.90;100.00
11878;BME280;5998;42.676;23.268;2023-02-28T06:57:48;95483.22;;;6.95;100.00
11878;BME280;5998;42.676;23.268;2023-02-28T07:00:17;95489.44;;;7.04;100.00
11878;BME280;5998;42.676;23.268;2023-02-28T07:02:44;95486.19;;;6.93;100.00
11878;BME280;5998;42.676;23.268;2023-02-28T07:05:12;95490.34;;;6.99;100.00
11878;BME280;5998;42.676;23.268;2023-02-28T07:07:39;95480.34;;;7.05;100.00
11878;BME280;5998;42.676;23.268;2023-02-28T07:10:10;95474.53;;;7.11;100.00
11878;BME280;5998;42.676;23.268;2023-02-28T07:14:56;95478.03;;;7.12;100.00
11878;BME280;5998;42.676;23.268;2023-02-28T07:17:23;95483.94;;;7.23;100.00
11878;BME280;5998;42.676;23.268;2023-02-28T07:19:50;95478.22;;;7.16;100.00
11878;BME280;5998;42.676;23.268;2023-02-28T07:22:16;95480.53;;;7.08;100.00
11878;BME280;5998;42.676;23.268;2023-02-28T07:24:43;95487.66;;;7.13;100.00
11878;BME280;5998;42.676;23.268;2023-02-28T07:27:10;95481.28;;;7.09;100.00
11878;BME280;5998;42.676;23.268;2023-02-28T07:29:36;95484.31;;;6.94;100.00
11878;BME280;5998;42.676;23.268;2023-02-28T07:32:05;95486.28;;;7.02;100.00
11878;BME280;5998;42.676;23.268;2023-02-28T07:34:31;95490.13;;;7.09;100.00
11878;BME280;5998;42.676;23.268;2023-02-28T07:36:58;95481.91;;;7.06;100.00
11878;BME280;5998;42.676;23.268;2023-02-28T07:39:28;95475.66;;;7.10;100.00
11878;BME280;5998;42.676;23.268;2023-02-28T07:41:55;95487.41;;;7.23;100.00
11878;BME280;5998;42.676;23.268;2023-02-28T07:44:22;95483.28;;;7.39;100.00
11878;BME280;5998;42.676;23.268;2023-02-28T07:46:48;95481.97;;;7.50;100.00
11878;BME280;5998;42.676;23.268;2023-02-28T07:49:16;95474.47;;;7.61;100.00
11878;BME280;5998;42.676;23.268;2023-02-28T07:51:43;95479.25;;;7.64;100.00
11878;BME280;5998;42.676;23.268;2023-02-28T07:54:10;95473.72;;;7.60;100.00
11878;BME280;5998;42.676;23.268;2023-02-28T07:56:36;95469.75;;;7.58;100.00
11878;BME280;5998;42.676;23.268;2023-02-28T07:59:03;95460.47;;;7.64;100.00
11878;BME280;5998;42.676;23.268;2023-02-28T08:01:30;95468.91;;;7.71;100.00
11878;BME280;5998;42.676;23.268;2023-02-28T08:03:57;95468.28;;;7.74;100.00
11878;BME280;5998;42.676;23.268;2023-02-28T08:06:25;95464.56;;;7.84;100.00
11878;BME280;5998;42.676;23.268;2023-02-28T08:08:53;95455.84;;;7.78;100.00
11878;BME280;5998;42.676;23.268;2023-02-28T08:11:21;95460.13;;;7.79;100.00
11878;BME280;5998;42.676;23.268;2023-02-28T08:13:48;95468.22;;;7.65;100.00
11878;BME280;5998;42.676;23.268;2023-02-28T08:16:14;95473.03;;;7.55;100.00
11878;BME280;5998;42.676;23.268;2023-02-28T08:18:46;95467.63;;;7.46;100.00
11878;BME280;5998;42.676;23.268;2023-02-28T08:21:13;95470.91;;;7.43;100.00
11878;BME280;5998;42.676;23.268;2023-02-28T08:23:41;95476.00;;;7.53;100.00
11878;BME280;5998;42.676;23.268;2023-02-28T08:26:07;95470.97;;;7.52;100.00
11878;BME280;5998;42.676;23.268;2023-02-28T08:28:34;95464.63;;;7.48;100.00
11878;BME280;5998;42.676;23.268;2023-02-28T08:31:07;95482.72;;;7.64;100.00
11878;BME280;5998;42.676;23.268;2023-02-28T08:33:34;95484.50;;;7.69;100.00
11878;BME280;5998;42.676;23.268;2023-02-28T08:36:01;95468.78;;;7.76;100.00
11878;BME280;5998;42.676;23.268;2023-02-28T08:38:28;95483.50;;;7.87;100.00
11878;BME280;5998;42.676;23.268;2023-02-28T08:40:59;95483.81;;;7.86;100.00
11878;BME280;5998;42.676;23.268;2023-02-28T08:43:26;95480.41;;;7.94;100.00
11878;BME280;5998;42.676;23.268;2023-02-28T08:45:53;95483.50;;;8.09;100.00
11878;BME280;5998;42.676;23.268;2023-02-28T08:48:22;95471.59;;;8.24;100.00
11878;BME280;5998;42.676;23.268;2023-02-28T08:50:55;95468.41;;;8.22;100.00
11878;BME280;5998;42.676;23.268;2023-02-28T08:53:22;95465.56;;;8.18;100.00
11878;BME280;5998;42.676;23.268;2023-02-28T08:55:55;95460.00;;;8.15;100.00
11878;BME280;5998;42.676;23.268;2023-02-28T08:58:23;95475.91;;;8.11;100.00
11878;BME280;5998;42.676;23.268;2023-02-28T09:00:50;95478.78;;;8.15;100.00
11878;BME280;5998;42.676;23.268;2023-02-28T09:03:17;95473.56;;;8.10;100.00
11878;BME280;5998;42.676;23.268;2023-02-28T09:05:52;95470.09;;;8.09;100.00
11878;BME280;5998;42.676;23.268;2023-02-28T09:08:18;95470.47;;;8.25;100.00
11878;BME280;5998;42.676;23.268;2023-02-28T09:10:45;95465.25;;;8.20;100.00
11878;BME280;5998;42.676;23.268;2023-02-28T09:13:12;95467.25;;;8.37;100.00
11878;BME280;5998;42.676;23.268;2023-02-28T09:15:40;95459.41;;;8.49;100.00
11878;BME280;5998;42.676;23.268;2023-02-28T09:18:07;95458.63;;;8.48;100.00
11878;BME280;5998;42.676;23.268;2023-02-28T09:20:33;95456.94;;;8.30;100.00
11878;BME280;5998;42.676;23.268;2023-02-28T09:23:00;95467.06;;;8.33;100.00
11878;BME280;5998;42.676;23.268;2023-02-28T09:25:27;95463.44;;;8.29;100.00
11878;BME280;5998;42.676;23.268;2023-02-28T09:27:53;95459.72;;;8.47;100.00
11878;BME280;5998;42.676;23.268;2023-02-28T09:30:20;95455.19;;;8.65;100.00
11878;BME280;5998;42.676;23.268;2023-02-28T09:32:48;95455.69;;;8.75;100.00
11878;BME280;5998;42.676;23.268;2023-02-28T09:35:17;95453.00;;;8.67;100.00
11878;BME280;5998;42.676;23.268;2023-02-28T09:37:44;95454.25;;;8.69;100.00
11878;BME280;5998;42.676;23.268;2023-02-28T09:40:12;95457.25;;;8.68;100.00
11878;BME280;5998;42.676;23.268;2023-02-28T09:42:40;95448.75;;;8.74;100.00
11878;BME280;5998;42.676;23.268;2023-02-28T09:45:23;95444.97;;;8.84;100.00
11878;BME280;5998;42.676;23.268;2023-02-28T09:47:54;95391.06;;;8.63;100.00
11878;BME280;5998;42.676;23.268;2023-02-28T09:50:29;95449.44;;;8.97;100.00
11878;BME280;5998;42.676;23.268;2023-02-28T09:52:59;95437.41;;;8.95;100.00
11878;BME280;5998;42.676;23.268;2023-02-28T09:55:29;95439.63;;;8.93;100.00
11878;BME280;5998;42.676;23.268;2023-02-28T09:57:57;95428.09;;;9.09;100.00
11878;BME280;5998;42.676;23.268;2023-02-28T10:00:29;95433.97;;;9.20;100.00
11878;BME280;5998;42.676;23.268;2023-02-28T10:03:09;95435.88;;;9.36;100.00
11878;BME280;5998;42.676;23.268;2023-02-28T10:05:44;95433.50;;;9.52;100.00
11878;BME280;5998;42.676;23.268;2023-02-28T10:08:17;95425.44;;;9.43;100.00
11878;BME280;5998;42.676;23.268;2023-02-28T10:10:49;95422.28;;;9.50;100.00
11878;BME280;5998;42.676;23.268;2023-02-28T10:13:24;95408.78;;;9.67;100.00
11878;BME280;5998;42.676;23.268;2023-02-28T10:15:54;95413.34;;;9.92;100.00
11878;BME280;5998;42.676;23.268;2023-02-28T10:18:26;95402.38;;;10.06;100.00
11878;BME280;5998;42.676;23.268;2023-02-28T10:20:56;95405.19;;;10.27;100.00
11878;BME280;5998;42.676;23.268;2023-02-28T10:23:26;95398.16;;;10.43;100.00
11878;BME280;5998;42.676;23.268;2023-02-28T10:25:57;95393.34;;;10.57;100.00
11878;BME280;5998;42.676;23.268;2023-02-28T10:28:26;95387.31;;;10.81;100.00
11878;BME280;5998;42.676;23.268;2023-02-28T10:30:56;95385.22;;;10.86;100.00
11878;BME280;5998;42.676;23.268;2023-02-28T10:33:28;95368.66;;;10.96;100.00
11878;BME280;5998;42.676;23.268;2023-02-28T10:35:57;95378.69;;;11.16;100.00
11878;BME280;5998;42.676;23.268;2023-02-28T10:38:26;95369.72;;;11.24;100.00
11878;BME280;5998;42.676;23.268;2023-02-28T10:41:03;95364.91;;;11.51;100.00
11878;BME280;5998;42.676;23.268;2023-02-28T10:43:30;95352.47;;;11.58;100.00
11878;BME280;5998;42.676;23.268;2023-02-28T10:46:03;95338.50;;;11.77;100.00
11878;BME280;5998;42.676;23.268;2023-02-28T10:48:34;95335.38;;;11.99;100.00
11878;BME280;5998;42.676;23.268;2023-02-28T10:51:03;95331.91;;;11.99;100.00
11878;BME280;5998;42.676;23.268;2023-02-28T10:53:34;95315.25;;;11.97;100.00
11878;BME280;5998;42.676;23.268;2023-02-28T10:56:03;95319.00;;;12.16;100.00
11878;BME280;5998;42.676;23.268;2023-02-28T10:58:34;95289.28;;;12.28;100.00
11878;BME280;5998;42.676;23.268;2023-02-28T11:01:13;95301.88;;;12.36;100.00
11878;BME280;5998;42.676;23.268;2023-02-28T11:03:42;95304.81;;;12.43;100.00
11878;BME280;5998;42.676;23.268;2023-02-28T11:06:15;95303.91;;;12.27;100.00
11878;BME280;5998;42.676;23.268;2023-02-28T11:08:46;95306.16;;;12.25;100.00
11878;BME280;5998;42.676;23.268;2023-02-28T11:11:13;95284.44;;;12.22;100.00
11878;BME280;5998;42.676;23.268;2023-02-28T11:13:44;95301.63;;;12.54;100.00
11878;BME280;5998;42.676;23.268;2023-02-28T11:16:13;95291.19;;;12.40;100.00
11878;BME280;5998;42.676;23.268;2023-02-28T11:18:43;95290.81;;;12.54;100.00
11878;BME280;5998;42.676;23.268;2023-02-28T11:21:17;95279.72;;;12.31;100.00
11878;BME280;5998;42.676;23.268;2023-02-28T11:23:49;95286.69;;;12.32;100.00
11878;BME280;5998;42.676;23.268;2023-02-28T11:26:35;95282.97;;;12.36;100.00
11878;BME280;5998;42.676;23.268;2023-02-28T11:29:10;95277.25;;;12.38;100.00
11878;BME280;5998;42.676;23.268;2023-02-28T11:31:37;95288.13;;;12.41;100.00
11878;BME280;5998;42.676;23.268;2023-02-28T11:36:59;95271.00;;;12.62;100.00
11878;BME280;5998;42.676;23.268;2023-02-28T11:39:30;95270.25;;;12.89;100.00
11878;BME280;5998;42.676;23.268;2023-02-28T11:42:19;95265.25;;;13.03;100.00
11878;BME280;5998;42.676;23.268;2023-02-28T11:45:03;95275.53;;;13.10;100.00
11878;BME280;5998;42.676;23.268;2023-02-28T11:47:39;95264.56;;;13.06;100.00
11878;BME280;5998;42.676;23.268;2023-02-28T11:50:18;95268.22;;;12.86;100.00
11878;BME280;5998;42.676;23.268;2023-02-28T11:52:52;95273.16;;;13.08;100.00
11878;BME280;5998;42.676;23.268;2023-02-28T11:55:22;95243.59;;;12.75;100.00
11878;BME280;5998;42.676;23.268;2023-02-28T11:58:00;95262.81;;;12.98;100.00
11878;BME280;5998;42.676;23.268;2023-02-28T12:00:39;95259.66;;;12.96;100.00
11878;BME280;5998;42.676;23.268;2023-02-28T12:03:16;95256.69;;;12.61;100.00
11878;BME280;5998;42.676;23.268;2023-02-28T12:05:48;95257.91;;;12.36;100.00
11878;BME280;5998;42.676;23.268;2023-02-28T12:08:26;95263.94;;;12.57;100.00
11878;BME280;5998;42.676;23.268;2023-02-28T12:11:06;95247.31;;;12.31;100.00
11878;BME280;5998;42.676;23.268;2023-02-28T12:13:46;95267.31;;;12.54;100.00
11878;BME280;5998;42.676;23.268;2023-02-28T12:16:40;95262.03;;;12.58;100.00
11878;BME280;5998;42.676;23.268;2023-02-28T12:19:17;95248.72;;;12.65;100.00
11878;BME280;5998;42.676;23.268;2023-02-28T12:22:01;95255.19;;;12.88;100.00
11878;BME280;5998;42.676;23.268;2023-02-28T12:24:45;95258.44;;;12.93;100.00
11878;BME280;5998;42.676;23.268;2023-02-28T12:27:17;95263.31;;;12.76;100.00
11878;BME280;5998;42.676;23.268;2023-02-28T12:29:49;95252.22;;;12.65;100.00
11878;BME280;5998;42.676;23.268;2023-02-28T12:32:21;95262.41;;;12.72;100.00
11878;BME280;5998;42.676;23.268;2023-02-28T12:34:53;95259.16;;;13.06;100.00
11878;BME280;5998;42.676;23.268;2023-02-28T12:37:25;95251.03;;;13.18;100.00
11878;BME280;5998;42.676;23.268;2023-02-28T12:40:00;95250.25;;;13.18;100.00
11878;BME280;5998;42.676;23.268;2023-02-28T12:42:33;95259.00;;;12.87;100.00
11878;BME280;5998;42.676;23.268;2023-02-28T12:45:02;95235.72;;;12.82;100.00
11878;BME280;5998;42.676;23.268;2023-02-28T12:47:32;95245.59;;;12.90;100.00
11878;BME280;5998;42.676;23.268;2023-02-28T12:50:03;95241.88;;;12.55;100.00
11878;BME280;5998;42.676;23.268;2023-02-28T12:52:37;95244.28;;;12.32;100.00
11878;BME280;5998;42.676;23.268;2023-02-28T12:55:11;95245.63;;;12.38;100.00
11878;BME280;5998;42.676;23.268;2023-02-28T12:57:48;95246.38;;;12.39;100.00
11878;BME280;5998;42.676;23.268;2023-02-28T13:00:18;95241.91;;;12.43;100.00
11878;BME280;5998;42.676;23.268;2023-02-28T13:03:12;95241.13;;;12.30;100.00
11878;BME280;5998;42.676;23.268;2023-02-28T13:06:05;95251.03;;;12.26;100.00
11878;BME280;5998;42.676;23.268;2023-02-28T13:09:02;95245.72;;;12.42;100.00
11878;BME280;5998;42.676;23.268;2023-02-28T13:11:33;95235.38;;;12.44;100.00
11878;BME280;5998;42.676;23.268;2023-02-28T13:14:06;95239.31;;;12.22;100.00
11878;BME280;5998;42.676;23.268;2023-02-28T13:16:54;95244.84;;;12.26;100.00
11878;BME280;5998;42.676;23.268;2023-02-28T13:19:24;95243.38;;;12.28;100.00
11878;BME280;5998;42.676;23.268;2023-02-28T13:21:52;95236.41;;;12.27;100.00
11878;BME280;5998;42.676;23.268;2023-02-28T13:24:43;95234.47;;;12.28;100.00
11878;BME280;5998;42.676;23.268;2023-02-28T13:27:34;95229.88;;;12.28;100.00
11878;BME280;5998;42.676;23.268;2023-02-28T13:32:43;95237.72;;;12.46;100.00
11878;BME280;5998;42.676;23.268;2023-02-28T13:35:35;95232.31;;;12.46;100.00